createdAt,value
2022-11-17T00:00:43.869Z,6.73
2022-11-17T00:03:15.681Z,9.20
2022-11-17T00:05:43.903Z,8.27
2022-11-17T00:08:14.110Z,8.37
2022-11-17T00:10:42.230Z,10.80
2022-11-17T00:13:28.775Z,8.10
2022-11-17T00:15:56.953Z,7.60
2022-11-17T00:18:42.615Z,8.27
2022-11-17T00:21:23.645Z,6.13
2022-11-17T00:23:53.337Z,7.27
2022-11-17T00:26:23.075Z,8.53
2022-11-17T00:28:54.589Z,7.00
2022-11-17T00:31:55.946Z,8.40
2022-11-17T00:34:24.978Z,6.53
2022-11-17T00:36:55.345Z,6.87
2022-11-17T00:39:25.486Z,6.97
2022-11-17T00:41:53.599Z,7.60
2022-11-17T00:44:21.700Z,7.50
2022-11-17T00:46:49.810Z,6.63
2022-11-17T00:49:20.019Z,7.33
2022-11-17T00:51:48.655Z,10.47
2022-11-17T00:54:16.752Z,8.03
2022-11-17T00:56:46.807Z,6.77
2022-11-17T00:59:15.482Z,7.37
2022-11-17T01:01:44.364Z,7.63
2022-11-17T01:04:14.273Z,9.70
2022-11-17T01:06:44.019Z,6.53
2022-11-17T01:09:14.841Z,6.40
2022-11-17T01:11:43.717Z,7.17
2022-11-17T01:14:16.129Z,6.13
2022-11-17T01:16:44.607Z,6.33
2022-11-17T01:19:14.477Z,6.93
2022-11-17T01:21:42.905Z,7.80
2022-11-17T01:24:12.342Z,7.77
2022-11-17T01:26:41.580Z,7.60
2022-11-17T01:29:12.062Z,6.73
2022-11-17T01:31:43.522Z,6.40
2022-11-17T01:34:12.005Z,6.70
2022-11-17T01:36:56.166Z,7.70
2022-11-17T01:39:25.282Z,6.00
2022-11-17T01:41:54.387Z,6.80
2022-11-17T01:45:00.972Z,6.87
2022-11-17T01:47:39.160Z,7.13
2022-11-17T01:50:13.983Z,6.80
2022-11-17T01:52:42.859Z,8.23
2022-11-17T01:55:12.300Z,7.47
2022-11-17T01:57:46.607Z,5.90
2022-11-17T02:00:15.802Z,8.00
2022-11-17T02:02:46.873Z,8.37
2022-11-17T02:05:27.981Z,7.57
2022-11-17T02:07:58.347Z,6.97
2022-11-17T02:10:26.936Z,6.10
2022-11-17T02:12:55.373Z,7.57
2022-11-17T02:15:24.099Z,6.63
2022-11-17T02:17:54.222Z,5.80
2022-11-17T02:20:35.025Z,6.73
2022-11-17T02:23:45.814Z,6.83
2022-11-17T02:26:35.407Z,6.43
2022-11-17T02:29:12.462Z,6.50
2022-11-17T02:31:50.103Z,7.30
2022-11-17T02:34:34.027Z,8.10
2022-11-17T02:37:11.244Z,6.17
2022-11-17T02:39:44.730Z,6.30
2022-11-17T02:42:18.351Z,7.27
2022-11-17T02:44:52.829Z,8.13
2022-11-17T02:47:24.839Z,8.87
2022-11-17T02:49:57.967Z,8.03
2022-11-17T02:52:27.507Z,6.63
2022-11-17T02:55:00.821Z,7.43
2022-11-17T02:57:30.151Z,6.97
2022-11-17T03:00:01.879Z,7.40
2022-11-17T03:03:08.714Z,6.17
2022-11-17T03:05:44.579Z,7.10
2022-11-17T03:08:24.325Z,7.80
2022-11-17T03:11:00.222Z,6.00
2022-11-17T03:13:38.226Z,6.63
2022-11-17T03:16:18.561Z,7.70
2022-11-17T03:18:56.888Z,6.73
2022-11-17T03:21:30.981Z,7.33
2022-11-17T03:24:05.113Z,6.27
2022-11-17T03:26:36.687Z,6.37
2022-11-17T03:29:09.777Z,5.97
2022-11-17T03:31:40.876Z,8.13
2022-11-17T03:34:14.471Z,6.67
2022-11-17T03:36:47.291Z,8.43
2022-11-17T03:39:21.334Z,6.47
2022-11-17T03:41:54.149Z,7.23
2022-11-17T03:44:25.434Z,8.17
2022-11-17T03:46:56.936Z,7.13
2022-11-17T03:49:33.996Z,7.07
2022-11-17T03:52:02.479Z,6.47
2022-11-17T03:54:30.667Z,7.03
2022-11-17T03:57:05.691Z,9.57
2022-11-17T03:59:43.039Z,6.83
2022-11-17T04:02:17.916Z,7.60
2022-11-17T04:05:03.400Z,9.10
2022-11-17T04:07:31.588Z,7.07
2022-11-17T04:09:59.833Z,7.30
2022-11-17T04:12:45.825Z,8.00
2022-11-17T04:15:32.224Z,8.13
2022-11-17T04:18:01.987Z,7.30
2022-11-17T04:20:36.053Z,8.17
2022-11-17T04:23:11.451Z,7.23
2022-11-17T04:25:58.474Z,7.83
2022-11-17T04:28:40.028Z,7.40
2022-11-17T04:31:11.220Z,7.57
2022-11-17T04:33:44.742Z,12.00
2022-11-17T04:36:14.643Z,7.17
2022-11-17T04:38:43.759Z,7.67
2022-11-17T04:41:31.179Z,8.13
2022-11-17T04:43:59.678Z,8.30
2022-11-17T04:46:28.713Z,7.20
2022-11-17T04:48:58.880Z,10.23
2022-11-17T04:51:27.943Z,9.07
2022-11-17T04:53:57.067Z,8.20
2022-11-17T04:56:26.428Z,8.57
2022-11-17T04:58:57.336Z,7.63
2022-11-17T05:01:26.910Z,8.43
2022-11-17T05:03:57.870Z,7.50
2022-11-17T05:06:28.271Z,7.73
2022-11-17T05:08:57.490Z,7.83
2022-11-17T05:11:45.023Z,10.37
2022-11-17T05:14:14.778Z,9.00
2022-11-17T05:17:04.505Z,8.07
2022-11-17T05:19:39.742Z,7.27
2022-11-17T05:22:29.479Z,8.07
2022-11-17T05:24:56.994Z,9.67
2022-11-17T05:27:25.408Z,7.67
2022-11-17T05:29:53.757Z,7.73
2022-11-17T05:32:22.010Z,8.50
2022-11-17T05:34:51.738Z,8.13
2022-11-17T05:37:19.893Z,7.03
2022-11-17T05:39:48.034Z,8.50
2022-11-17T05:42:16.173Z,8.00
2022-11-17T05:44:44.498Z,8.00
2022-11-17T05:47:12.672Z,8.33
2022-11-17T05:49:40.800Z,8.93
2022-11-17T05:52:10.317Z,9.60
2022-11-17T05:54:38.470Z,8.00
2022-11-17T05:57:10.343Z,11.50
2022-11-17T05:59:42.780Z,8.40
2022-11-17T06:02:15.670Z,9.40
2022-11-17T06:04:46.179Z,8.80
2022-11-17T06:07:17.726Z,8.50
2022-11-17T06:09:47.543Z,8.60
2022-11-17T06:12:16.346Z,9.93
2022-11-17T06:14:44.522Z,10.63
2022-11-17T06:17:22.436Z,10.37
2022-11-17T06:19:55.589Z,9.77
2022-11-17T06:22:27.083Z,9.83
2022-11-17T06:24:56.169Z,8.90
2022-11-17T06:27:25.996Z,10.50
2022-11-17T06:29:55.203Z,8.70
2022-11-17T06:32:24.011Z,7.40
2022-11-17T06:34:56.121Z,8.50
2022-11-17T06:37:26.500Z,9.77
2022-11-17T06:39:54.648Z,7.93
2022-11-17T06:42:43.866Z,10.60
2022-11-17T06:45:12.920Z,7.83
2022-11-17T06:47:41.225Z,9.27
2022-11-17T06:50:10.181Z,9.27
2022-11-17T06:52:40.086Z,10.13
2022-11-17T06:55:11.589Z,10.93
2022-11-17T06:57:39.775Z,7.40
2022-11-17T07:00:09.280Z,8.50
2022-11-17T07:02:37.787Z,9.87
2022-11-17T07:05:06.650Z,9.17
2022-11-17T07:07:34.855Z,8.13
2022-11-17T07:10:04.753Z,9.23
2022-11-17T07:12:34.099Z,6.77
2022-11-17T07:15:02.484Z,8.70
2022-11-17T07:17:32.744Z,10.33
2022-11-17T07:20:00.950Z,8.00
2022-11-17T07:22:29.218Z,9.00
2022-11-17T07:24:57.373Z,9.40
2022-11-17T07:27:26.933Z,8.73
2022-11-17T07:29:55.293Z,9.60
2022-11-17T07:32:23.534Z,8.27
2022-11-17T07:34:52.110Z,9.67
2022-11-17T07:37:20.511Z,7.57
2022-11-17T07:39:48.722Z,7.50
2022-11-17T07:42:16.939Z,8.80
2022-11-17T07:44:55.274Z,8.27
2022-11-17T07:47:23.545Z,8.40
2022-11-17T07:49:51.748Z,8.50
2022-11-17T07:52:20.022Z,8.40
2022-11-17T07:54:48.101Z,6.37
2022-11-17T07:57:16.284Z,8.77
2022-11-17T07:59:44.477Z,7.93
2022-11-17T08:02:14.225Z,8.57
2022-11-17T08:04:42.486Z,7.67
2022-11-17T08:07:10.692Z,10.70
2022-11-17T08:09:38.945Z,8.87
2022-11-17T08:12:07.624Z,7.23
2022-11-17T08:14:35.796Z,5.97
2022-11-17T08:17:04.014Z,8.87
2022-11-17T08:19:33.820Z,8.20
2022-11-17T08:22:01.997Z,7.27
2022-11-17T08:24:30.262Z,8.43
2022-11-17T08:26:58.430Z,8.67
2022-11-17T08:29:26.638Z,7.77
2022-11-17T08:31:54.817Z,8.70
2022-11-17T08:34:22.961Z,8.23
2022-11-17T08:36:52.562Z,8.23
2022-11-17T08:39:20.878Z,9.27
2022-11-17T08:41:49.086Z,8.37
2022-11-17T08:44:17.321Z,8.13
2022-11-17T08:46:45.562Z,7.73
2022-11-17T08:49:13.876Z,7.50
2022-11-17T08:51:42.135Z,7.83
2022-11-17T08:54:13.455Z,9.53
2022-11-17T08:56:41.776Z,7.03
2022-11-17T08:59:13.415Z,9.77
2022-11-17T09:01:41.635Z,10.87
2022-11-17T09:04:09.853Z,8.70
2022-11-17T09:06:38.011Z,10.70
2022-11-17T09:09:06.330Z,8.93
2022-11-17T09:11:36.013Z,9.57
2022-11-17T09:14:04.136Z,8.87
2022-11-17T09:16:32.383Z,7.97
2022-11-17T09:19:00.643Z,8.90
2022-11-17T09:21:29.027Z,9.23
2022-11-17T09:23:57.353Z,11.93
2022-11-17T09:26:25.477Z,12.43
2022-11-17T09:28:55.032Z,10.47
2022-11-17T09:31:23.869Z,8.70
2022-11-17T09:33:52.032Z,9.20
2022-11-17T09:36:20.425Z,10.73
2022-11-17T09:38:48.974Z,10.17
2022-11-17T09:41:26.196Z,12.57
2022-11-17T09:44:25.581Z,12.13
2022-11-17T09:47:03.933Z,12.13
2022-11-17T09:49:40.831Z,10.37
2022-11-17T09:52:16.901Z,11.20
2022-11-17T09:54:49.932Z,10.87
2022-11-17T09:57:25.313Z,12.93
2022-11-17T10:00:04.624Z,10.80
2022-11-17T10:02:33.840Z,9.67
2022-11-17T10:05:02.537Z,9.33
2022-11-17T10:07:34.002Z,11.67
2022-11-17T10:10:04.486Z,10.93
2022-11-17T10:12:38.792Z,8.83
2022-11-17T10:15:22.813Z,9.73
2022-11-17T10:17:52.433Z,10.80
2022-11-17T10:20:21.179Z,8.10
2022-11-17T10:22:51.097Z,8.97
2022-11-17T10:25:37.916Z,9.27
2022-11-17T10:28:07.994Z,13.60
2022-11-17T10:30:37.551Z,8.30
2022-11-17T10:33:05.857Z,10.43
2022-11-17T10:35:35.774Z,10.00
2022-11-17T10:38:06.839Z,12.00
2022-11-17T10:40:49.219Z,10.93
2022-11-17T10:43:25.585Z,9.50
2022-11-17T10:45:57.467Z,12.27
2022-11-17T10:48:30.902Z,11.27
2022-11-17T10:51:00.731Z,11.23
2022-11-17T10:53:31.959Z,10.50
2022-11-17T10:56:08.765Z,12.90
2022-11-17T10:58:56.290Z,10.67
2022-11-17T11:01:32.267Z,6.87
2022-11-17T11:04:00.492Z,8.47
2022-11-17T11:06:30.581Z,11.07
2022-11-17T11:09:01.950Z,9.33
2022-11-17T11:11:40.342Z,14.30
2022-11-17T11:14:17.692Z,8.33
2022-11-17T11:16:49.070Z,8.30
2022-11-17T11:19:19.279Z,10.43
2022-11-17T11:22:08.134Z,7.93
2022-11-17T11:24:43.303Z,8.20
2022-11-17T11:27:36.534Z,8.10
2022-11-17T11:30:07.107Z,9.93
2022-11-17T11:32:48.217Z,8.37
2022-11-17T11:35:46.106Z,6.83
2022-11-17T11:38:27.160Z,8.87
2022-11-17T11:41:08.314Z,10.97
2022-11-17T11:43:45.558Z,7.37
2022-11-17T11:46:18.869Z,8.13
2022-11-17T11:48:50.707Z,7.17
2022-11-17T11:51:21.998Z,7.33
2022-11-17T11:53:55.843Z,10.20
2022-11-17T11:56:32.632Z,8.70
2022-11-17T11:59:05.006Z,9.07
2022-11-17T12:01:44.933Z,7.70
2022-11-17T12:04:26.056Z,10.67
2022-11-17T12:07:00.153Z,10.97
2022-11-17T12:09:58.603Z,8.60
2022-11-17T12:12:31.646Z,7.77
2022-11-17T12:15:34.167Z,7.20
2022-11-17T12:18:05.540Z,7.70
2022-11-17T12:21:01.159Z,6.97
2022-11-17T12:23:43.659Z,8.47
2022-11-17T12:26:23.201Z,8.27
2022-11-17T12:29:11.838Z,6.63
2022-11-17T12:31:44.314Z,8.80
2022-11-17T12:34:28.831Z,8.03
2022-11-17T12:37:31.354Z,8.80
2022-11-17T12:40:10.390Z,8.30
2022-11-17T12:43:17.152Z,9.77
2022-11-17T12:46:03.478Z,8.00
2022-11-17T12:48:37.131Z,7.93
2022-11-17T12:51:12.531Z,8.27
2022-11-17T12:53:56.400Z,10.07
2022-11-17T12:56:46.684Z,6.97
2022-11-17T12:59:47.597Z,10.40
2022-11-17T13:02:28.677Z,7.83
2022-11-17T13:05:02.133Z,7.60
2022-11-17T13:07:30.568Z,7.83
2022-11-17T13:10:02.689Z,7.47
2022-11-17T13:12:32.534Z,9.10
2022-11-17T13:15:03.137Z,8.40
2022-11-17T13:17:34.286Z,9.30
2022-11-17T13:20:04.891Z,12.57
2022-11-17T13:22:40.550Z,8.23
2022-11-17T13:29:24.530Z,8.17
2022-11-17T13:32:12.228Z,8.43
2022-11-17T13:34:50.692Z,7.53
2022-11-17T13:37:20.657Z,9.47
2022-11-17T13:39:56.728Z,10.00
2022-11-17T13:42:27.097Z,6.63
2022-11-17T13:44:59.257Z,9.30
2022-11-17T13:47:42.044Z,9.63
2022-11-17T13:50:25.147Z,7.50
2022-11-17T13:52:55.939Z,9.53
2022-11-17T13:55:25.500Z,11.07
2022-11-17T13:57:59.443Z,10.27
2022-11-17T14:00:29.739Z,6.70
2022-11-17T14:02:59.436Z,9.27
2022-11-17T14:05:28.685Z,10.83
2022-11-17T14:07:58.621Z,8.77
2022-11-17T14:10:35.132Z,10.37
2022-11-17T14:13:38.447Z,9.30
2022-11-17T14:16:22.095Z,10.20
2022-11-17T14:19:03.976Z,8.13
2022-11-17T14:21:33.332Z,5.20
2022-11-17T14:24:05.331Z,8.73
2022-11-17T14:26:33.915Z,9.87
2022-11-17T14:29:03.161Z,7.97
2022-11-17T14:31:33.339Z,8.63
2022-11-17T14:34:03.998Z,6.73
2022-11-17T14:36:33.576Z,8.87
2022-11-17T14:39:03.157Z,9.47
2022-11-17T14:41:32.091Z,9.90
2022-11-17T14:44:00.281Z,9.47
2022-11-17T14:46:28.695Z,9.60
2022-11-17T14:48:58.196Z,9.70
2022-11-17T14:51:26.528Z,8.77
2022-11-17T14:53:55.203Z,7.97
2022-11-17T14:56:24.642Z,8.77
2022-11-17T14:58:55.909Z,9.13
2022-11-17T15:01:28.528Z,10.37
2022-11-17T15:03:59.654Z,8.27
2022-11-17T15:06:28.066Z,10.83
2022-11-17T15:08:57.947Z,8.50
2022-11-17T15:11:27.256Z,7.57
2022-11-17T15:13:55.409Z,8.07
2022-11-17T15:16:23.540Z,10.33
2022-11-17T15:18:51.949Z,11.80
2022-11-17T15:21:21.473Z,9.23
2022-11-17T15:23:49.684Z,13.70
2022-11-17T15:26:20.079Z,12.43
2022-11-17T15:28:48.299Z,12.37
2022-11-17T15:31:18.577Z,11.60
2022-11-17T15:33:48.699Z,13.60
2022-11-17T15:36:19.151Z,10.87
2022-11-17T15:38:48.827Z,11.93
2022-11-17T15:41:17.827Z,8.73
2022-11-17T15:43:46.249Z,9.13
2022-11-17T15:46:15.888Z,8.87
2022-11-17T15:48:45.716Z,10.73
2022-11-17T15:51:15.693Z,9.87
2022-11-17T15:53:45.375Z,11.53
2022-11-17T15:56:16.643Z,14.00
2022-11-17T15:58:45.764Z,11.00
2022-11-17T16:01:15.666Z,10.53
2022-11-17T16:03:46.100Z,10.90
2022-11-17T16:06:14.291Z,11.83
2022-11-17T16:08:42.510Z,9.97
2022-11-17T16:11:11.470Z,9.47
2022-11-17T16:13:41.040Z,11.63
2022-11-17T16:16:13.353Z,10.40
2022-11-17T16:18:41.704Z,13.83
2022-11-17T16:21:12.393Z,10.20
2022-11-17T16:23:41.672Z,11.80
2022-11-17T16:26:11.167Z,10.83
2022-11-17T16:28:41.125Z,10.93
2022-11-17T16:31:14.619Z,12.67
2022-11-17T16:33:47.477Z,12.70
2022-11-17T16:36:15.732Z,10.27
2022-11-17T16:38:59.754Z,14.53
2022-11-17T16:41:30.416Z,17.87
2022-11-17T16:44:00.345Z,12.50
2022-11-17T16:46:30.499Z,13.33
2022-11-17T16:49:02.116Z,13.23
2022-11-17T16:51:30.408Z,11.80
2022-11-17T16:54:00.920Z,13.80
2022-11-17T16:56:29.416Z,13.40
2022-11-17T16:58:59.770Z,13.37
2022-11-17T17:01:30.571Z,11.63
2022-11-17T17:03:59.723Z,12.80
2022-11-17T17:06:28.338Z,9.87
2022-11-17T17:08:57.079Z,10.60
2022-11-17T17:11:25.875Z,11.27
2022-11-17T17:13:54.297Z,10.60
2022-11-17T17:16:24.857Z,12.13
2022-11-17T17:18:56.183Z,13.10
2022-11-17T17:21:24.414Z,11.30
2022-11-17T17:23:52.640Z,15.77
2022-11-17T17:26:23.016Z,11.23
2022-11-17T17:28:52.417Z,11.93
2022-11-17T17:31:23.703Z,12.60
2022-11-17T17:33:52.902Z,11.97
2022-11-17T17:36:22.821Z,10.23
2022-11-17T17:38:55.433Z,11.80
2022-11-17T17:41:26.132Z,11.50
2022-11-17T17:43:58.454Z,14.17
2022-11-17T17:46:29.671Z,12.17
2022-11-17T17:48:58.675Z,12.03
2022-11-17T17:51:28.584Z,10.90
2022-11-17T17:53:58.270Z,12.70
2022-11-17T17:56:26.795Z,11.90
2022-11-17T17:58:55.875Z,8.93
2022-11-17T18:01:25.387Z,12.57
2022-11-17T18:04:00.922Z,15.27
2022-11-17T18:06:29.501Z,14.40
2022-11-17T18:08:58.630Z,14.50
2022-11-17T18:11:27.061Z,13.37
2022-11-17T18:13:55.525Z,12.73
2022-11-17T18:16:25.727Z,14.50
2022-11-17T18:19:00.292Z,12.13
2022-11-17T18:21:29.292Z,15.57
2022-11-17T18:23:58.905Z,14.77
2022-11-17T18:26:29.130Z,13.87
2022-11-17T18:28:59.047Z,14.37
2022-11-17T18:31:29.401Z,14.70
2022-11-17T18:34:00.391Z,17.23
2022-11-17T18:36:29.595Z,13.30
2022-11-17T18:38:58.695Z,17.53
2022-11-17T18:41:30.538Z,12.77
2022-11-17T18:43:59.051Z,13.17
2022-11-17T18:46:31.252Z,12.43
2022-11-17T18:49:01.568Z,13.80
2022-11-17T18:51:31.600Z,14.90
2022-11-17T18:54:02.782Z,13.23
2022-11-17T18:56:33.704Z,12.73
2022-11-17T18:59:02.280Z,12.43
2022-11-17T19:01:31.732Z,12.93
2022-11-17T19:04:01.823Z,14.37
2022-11-17T19:06:30.562Z,12.53
2022-11-17T19:08:59.916Z,10.87
2022-11-17T19:11:30.629Z,12.63
2022-11-17T19:14:02.075Z,14.47
2022-11-17T19:16:31.861Z,15.00
2022-11-17T19:19:01.439Z,21.10
2022-11-17T19:21:31.715Z,15.40
2022-11-17T19:24:01.684Z,19.37
2022-11-17T19:26:31.313Z,15.60
2022-11-17T19:29:01.309Z,14.27
2022-11-17T19:31:29.572Z,16.83
2022-11-17T19:33:58.509Z,15.97
2022-11-17T19:36:30.485Z,13.33
2022-11-17T19:39:00.053Z,13.83
2022-11-17T19:41:30.097Z,14.73
2022-11-17T19:44:00.179Z,16.13
2022-11-17T19:46:29.565Z,14.47
2022-11-17T19:48:58.406Z,14.97
2022-11-17T19:51:29.827Z,17.03
2022-11-17T19:54:01.602Z,16.27
2022-11-17T19:56:30.628Z,15.57
2022-11-17T19:58:58.911Z,17.73
2022-11-17T20:01:28.662Z,15.87
2022-11-17T20:03:59.020Z,15.43
2022-11-17T20:06:30.075Z,14.47
2022-11-17T20:08:58.521Z,16.03
2022-11-17T20:11:28.203Z,15.10
2022-11-17T20:13:57.058Z,14.43
2022-11-17T20:16:27.546Z,15.10
2022-11-17T20:18:57.927Z,15.83
2022-11-17T20:21:27.357Z,15.90
2022-11-17T20:23:57.369Z,14.30
2022-11-17T20:26:26.962Z,15.57
2022-11-17T20:28:55.566Z,15.80
2022-11-17T20:31:25.855Z,16.23
2022-11-17T20:33:57.577Z,14.13
2022-11-17T20:36:26.212Z,13.30
2022-11-17T20:38:57.076Z,14.40
2022-11-17T20:41:25.857Z,14.97
2022-11-17T20:43:55.877Z,16.77
2022-11-17T20:46:25.230Z,15.13
2022-11-17T20:48:53.429Z,15.23
2022-11-17T20:51:23.158Z,14.57
2022-11-17T20:53:51.438Z,13.40
2022-11-17T20:56:21.327Z,14.67
2022-11-17T20:58:49.713Z,17.83
2022-11-17T21:01:19.192Z,17.03
2022-11-17T21:03:47.710Z,12.97
2022-11-17T21:06:16.206Z,15.90
2022-11-17T21:08:45.779Z,16.07
2022-11-17T21:11:35.941Z,14.37
2022-11-17T21:14:06.714Z,17.63
2022-11-17T21:16:35.269Z,13.50
2022-11-17T21:19:03.423Z,15.60
2022-11-17T21:21:31.680Z,14.07
2022-11-17T21:23:59.823Z,15.83
2022-11-17T21:26:28.788Z,13.70
2022-11-17T21:29:01.714Z,14.47
2022-11-17T21:31:34.503Z,15.37
2022-11-17T21:34:04.306Z,15.00
2022-11-17T21:36:33.069Z,15.67
2022-11-17T21:39:01.799Z,14.43
2022-11-17T21:41:31.535Z,16.17
2022-11-17T21:44:02.044Z,15.77
2022-11-17T21:46:31.777Z,13.33
2022-11-17T21:49:01.745Z,17.77
2022-11-17T21:51:33.214Z,14.20
2022-11-17T21:54:03.219Z,17.47
2022-11-17T21:56:32.053Z,15.80
2022-11-17T21:59:01.801Z,16.43
2022-11-17T22:01:30.946Z,14.57
2022-11-17T22:03:59.590Z,12.53
2022-11-17T22:06:29.501Z,15.30
2022-11-17T22:08:59.586Z,13.70
2022-11-17T22:11:38.954Z,13.63
2022-11-17T22:14:09.797Z,13.47
2022-11-17T22:16:39.622Z,16.00
2022-11-17T22:19:08.907Z,13.87
2022-11-17T22:21:39.504Z,15.20
2022-11-17T22:24:09.987Z,17.90
2022-11-17T22:26:40.843Z,14.70
2022-11-17T22:29:12.587Z,17.77
2022-11-17T22:31:40.753Z,16.53
2022-11-17T22:34:08.915Z,17.80
2022-11-17T22:36:38.452Z,14.43
2022-11-17T22:39:06.980Z,15.40
2022-11-17T22:41:35.164Z,15.10
2022-11-17T22:44:03.558Z,14.50
2022-11-17T22:46:31.860Z,18.00
2022-11-17T22:49:00.072Z,15.50
2022-11-17T22:51:45.736Z,15.63
2022-11-17T22:54:17.225Z,16.97
2022-11-17T22:56:46.536Z,17.13
2022-11-17T22:59:15.067Z,15.93
2022-11-17T23:01:43.437Z,17.47
2022-11-17T23:04:12.980Z,16.37
2022-11-17T23:06:41.111Z,17.17
2022-11-17T23:09:09.615Z,18.13
2022-11-17T23:11:39.650Z,18.23
2022-11-17T23:14:10.103Z,16.47
2022-11-17T23:16:38.560Z,16.77
2022-11-17T23:19:09.422Z,15.40
2022-11-17T23:21:37.622Z,17.07
2022-11-17T23:24:06.428Z,16.27
2022-11-17T23:26:34.615Z,17.33
2022-11-17T23:29:04.224Z,14.83
2022-11-17T23:31:32.385Z,14.53
2022-11-17T23:34:00.613Z,17.17
2022-11-17T23:36:28.824Z,19.43
2022-11-17T23:38:57.732Z,17.33
2022-11-17T23:41:26.172Z,17.97
2022-11-17T23:43:55.369Z,17.77
2022-11-17T23:46:26.022Z,16.93
2022-11-17T23:48:56.172Z,18.33
2022-11-17T23:51:25.620Z,17.87
2022-11-17T23:53:54.895Z,18.03
2022-11-17T23:56:23.704Z,17.37
2022-11-17T23:58:52.360Z,16.13
